createdAt,value
2023-04-10T00:04:58.430Z,6.47
2023-04-10T00:10:01.278Z,6.50
2023-04-10T00:15:04.415Z,6.45
2023-04-10T00:20:10.068Z,6.48
2023-04-10T00:25:12.898Z,6.45
2023-04-10T00:30:15.950Z,6.34
2023-04-10T00:35:20.123Z,6.22
2023-04-10T00:40:22.911Z,6.19
2023-04-10T00:45:25.879Z,6.16
2023-04-10T00:50:30.039Z,6.16
2023-04-10T00:55:32.885Z,6.09
2023-04-10T01:00:35.757Z,6.04
2023-04-10T01:05:46.282Z,5.94
2023-04-10T01:10:54.894Z,5.86
2023-04-10T01:16:02.631Z,5.87
2023-04-10T01:21:09.363Z,5.89
2023-04-10T01:26:13.318Z,5.83
2023-04-10T01:31:22.393Z,5.84
2023-04-10T01:36:29.481Z,5.82
2023-04-10T01:41:34.379Z,5.83
2023-04-10T01:46:40.104Z,5.88
2023-04-10T01:51:43.879Z,5.87
2023-04-10T01:56:48.421Z,5.83
2023-04-10T02:01:58.494Z,5.81
2023-04-10T02:07:04.937Z,5.73
2023-04-10T02:12:11.393Z,5.73
2023-04-10T02:17:19.502Z,5.76
2023-04-10T02:22:27.865Z,5.76
2023-04-10T02:27:31.523Z,5.62
2023-04-10T02:32:36.877Z,5.66
2023-04-10T02:37:39.895Z,5.45
2023-04-10T02:42:44.050Z,5.73
2023-04-10T02:47:48.935Z,5.69
2023-04-10T02:52:51.936Z,5.71
2023-04-10T02:57:54.835Z,5.78
2023-04-10T03:02:59.213Z,5.68
2023-04-10T03:08:08.077Z,5.75
2023-04-10T03:13:10.996Z,5.68
2023-04-10T03:18:15.496Z,5.62
2023-04-10T03:23:20.591Z,5.72
2023-04-10T03:28:23.696Z,5.75
2023-04-10T03:33:27.990Z,5.73
2023-04-10T03:38:31.153Z,5.68
2023-04-10T03:43:34.321Z,5.66
2023-04-10T03:48:41.805Z,5.66
2023-04-10T03:53:46.107Z,5.58
2023-04-10T03:58:51.933Z,5.55
2023-04-10T04:03:57.680Z,5.49
2023-04-10T04:09:20.781Z,5.40
2023-04-10T04:14:44.732Z,5.52
2023-04-10T04:20:02.567Z,5.50
2023-04-10T04:25:25.821Z,5.49
2023-04-10T04:30:50.993Z,5.48
2023-04-10T04:35:59.752Z,5.45
2023-04-10T04:41:16.386Z,5.39
2023-04-10T04:46:36.058Z,5.45
2023-04-10T04:52:12.022Z,5.53
2023-04-10T04:57:18.418Z,5.46
2023-04-10T05:02:41.949Z,5.56
2023-04-10T05:08:06.244Z,5.64
2023-04-10T05:13:20.380Z,5.69
2023-04-10T05:18:43.010Z,5.82
2023-04-10T05:24:05.227Z,5.94
2023-04-10T05:29:28.273Z,6.04
2023-04-10T05:35:03.296Z,6.17
2023-04-10T05:40:12.726Z,6.30
2023-04-10T05:45:33.918Z,6.48
2023-04-10T05:50:54.904Z,6.68
2023-04-10T05:56:18.975Z,7.09
2023-04-10T06:01:38.944Z,7.43
2023-04-10T06:06:41.969Z,7.63
2023-04-10T06:11:47.622Z,7.70
2023-04-10T06:16:54.169Z,7.59
2023-04-10T06:21:57.084Z,7.97
2023-04-10T06:27:01.233Z,8.41
2023-04-10T06:32:04.182Z,8.46
2023-04-10T06:37:11.427Z,8.42
2023-04-10T06:42:15.642Z,8.55
2023-04-10T06:47:36.007Z,8.42
2023-04-10T06:52:38.898Z,8.50
2023-04-10T06:57:43.459Z,8.72
2023-04-10T07:02:46.402Z,8.83
2023-04-10T07:07:50.593Z,9.33
2023-04-10T07:12:54.728Z,9.72
2023-04-10T07:17:57.602Z,9.80
2023-04-10T07:23:00.467Z,10.08
2023-04-10T07:28:04.725Z,10.26
2023-04-10T07:33:07.918Z,10.52
2023-04-10T07:38:13.083Z,10.70
2023-04-10T07:43:17.283Z,11.23
2023-04-10T07:48:20.076Z,11.72
2023-04-10T07:53:23.078Z,12.02
2023-04-10T07:58:27.283Z,12.22
2023-04-10T08:03:30.354Z,12.85
2023-04-10T08:08:33.264Z,13.22
2023-04-10T08:13:37.451Z,13.45
2023-04-10T08:18:40.413Z,13.16
2023-04-10T08:23:43.252Z,13.32
2023-04-10T08:28:49.362Z,13.61
2023-04-10T08:33:52.755Z,14.79
2023-04-10T08:38:56.006Z,15.41
2023-04-10T08:44:00.221Z,14.11
2023-04-10T08:49:04.174Z,13.94
2023-04-10T08:54:09.041Z,14.25
2023-04-10T08:59:13.342Z,14.07
2023-04-10T09:04:16.959Z,14.23
2023-04-10T09:09:19.918Z,13.92
2023-04-10T09:14:25.246Z,14.23
2023-04-10T09:19:32.184Z,14.42
2023-04-10T09:24:38.156Z,15.04
2023-04-10T09:29:44.171Z,15.08
2023-04-10T09:34:54.852Z,14.57
2023-04-10T09:39:57.952Z,15.00
2023-04-10T09:45:02.908Z,15.04
2023-04-10T09:50:06.400Z,15.65
2023-04-10T09:55:17.855Z,15.32
2023-04-10T10:00:22.072Z,15.50
2023-04-10T10:05:28.105Z,15.74
2023-04-10T10:10:31.127Z,15.41
2023-04-10T10:15:42.729Z,15.59
2023-04-10T10:20:47.252Z,15.69
2023-04-10T10:25:51.464Z,16.61
2023-04-10T10:30:56.338Z,16.45
2023-04-10T10:36:01.342Z,17.61
2023-04-10T10:41:17.170Z,16.40
2023-04-10T10:46:31.003Z,16.15
2023-04-10T10:51:47.807Z,16.86
2023-04-10T10:56:50.839Z,16.79
2023-04-10T11:02:16.817Z,17.63
2023-04-10T11:07:20.093Z,18.33
2023-04-10T11:12:24.132Z,18.63
2023-04-10T11:17:54.373Z,18.93
2023-04-10T11:23:11.883Z,17.54
2023-04-10T11:28:35.182Z,17.82
2023-04-10T11:33:39.457Z,17.46
2023-04-10T11:38:42.346Z,17.01
2023-04-10T11:43:45.343Z,16.50
2023-04-10T11:48:53.420Z,17.33
2023-04-10T11:54:09.571Z,16.90
2023-04-10T11:59:14.407Z,16.88
2023-04-10T12:04:20.857Z,17.18
2023-04-10T12:09:24.766Z,17.57
2023-04-10T12:14:33.007Z,17.70
2023-04-10T12:19:39.388Z,17.75
2023-04-10T12:24:43.871Z,17.68
2023-04-10T12:29:47.426Z,17.86
2023-04-10T12:34:57.487Z,18.99
2023-04-10T12:40:07.064Z,18.45
2023-04-10T12:45:13.785Z,18.60
2023-04-10T12:50:20.867Z,19.36
2023-04-10T12:55:23.794Z,18.70
2023-04-10T13:00:26.694Z,18.26
2023-04-10T13:05:31.114Z,18.78
2023-04-10T13:10:33.966Z,18.67
2023-04-10T13:15:36.857Z,18.16
2023-04-10T13:20:42.146Z,19.10
2023-04-10T13:25:45.044Z,19.20
2023-04-10T13:30:47.945Z,19.89
2023-04-10T13:35:52.125Z,19.62
2023-04-10T13:40:55.080Z,20.07
2023-04-10T13:45:57.926Z,19.04
2023-04-10T13:51:02.074Z,19.08
2023-04-10T13:56:06.445Z,19.19
2023-04-10T14:01:09.315Z,19.52
2023-04-10T14:06:14.224Z,18.36
2023-04-10T14:11:17.173Z,17.13
2023-04-10T14:16:20.066Z,17.45
2023-04-10T14:21:24.374Z,17.40
2023-04-10T14:26:27.279Z,17.70
2023-04-10T14:31:30.471Z,18.26
2023-04-10T14:36:34.645Z,18.98
2023-04-10T14:41:37.441Z,18.93
2023-04-10T14:46:40.227Z,19.08
2023-04-10T14:51:48.459Z,19.36
2023-04-10T14:56:51.485Z,18.78
2023-04-10T15:01:54.813Z,18.01
2023-04-10T15:06:59.112Z,17.91
2023-04-10T15:12:02.194Z,17.04
2023-04-10T15:17:05.300Z,17.12
2023-04-10T15:22:09.476Z,17.31
2023-04-10T15:27:12.256Z,16.83
2023-04-10T15:32:15.069Z,17.03
2023-04-10T15:37:19.232Z,16.94
2023-04-10T15:42:22.056Z,17.15
2023-04-10T15:47:24.899Z,17.06
2023-04-10T15:52:31.727Z,17.21
2023-04-10T15:57:34.705Z,17.16
2023-04-10T16:02:37.831Z,16.86
2023-04-10T16:07:43.773Z,17.19
2023-04-10T16:12:46.902Z,16.71
2023-04-10T16:17:49.825Z,16.86
2023-04-10T16:22:54.566Z,16.61
2023-04-10T16:27:57.646Z,16.56
2023-04-10T16:33:00.570Z,15.98
2023-04-10T16:38:04.834Z,16.03
2023-04-10T16:43:07.675Z,15.84
2023-04-10T16:48:10.717Z,15.86
2023-04-10T16:53:14.949Z,15.78
2023-04-10T16:58:17.752Z,15.82
2023-04-10T17:03:20.651Z,15.71
2023-04-10T17:08:24.882Z,15.87
2023-04-10T17:13:27.817Z,16.02
2023-04-10T17:18:30.805Z,16.07
2023-04-10T17:23:34.987Z,15.71
2023-04-10T17:28:37.839Z,15.63
2023-04-10T17:33:41.781Z,15.75
2023-04-10T17:38:46.027Z,15.60
2023-04-10T17:43:49.509Z,15.77
2023-04-10T17:48:52.497Z,15.63
2023-04-10T17:53:56.947Z,15.50
2023-04-10T17:59:00.593Z,15.40
2023-04-10T18:04:04.478Z,15.46
2023-04-10T18:09:08.804Z,15.24
2023-04-10T18:14:11.668Z,15.23
2023-04-10T18:19:14.546Z,15.23
2023-04-10T18:24:18.824Z,15.24
2023-04-10T18:29:22.676Z,15.14
2023-04-10T18:34:25.484Z,15.30
2023-04-10T18:39:29.631Z,15.16
2023-04-10T18:44:34.507Z,15.24
2023-04-10T18:49:37.667Z,15.27
2023-04-10T18:54:41.941Z,15.19
2023-04-10T18:59:45.235Z,15.25
2023-04-10T19:04:48.370Z,15.11
2023-04-10T19:09:53.087Z,14.72
2023-04-10T19:14:55.940Z,14.44
2023-04-10T19:20:00.406Z,14.41
2023-04-10T19:25:04.784Z,14.27
2023-04-10T19:30:09.035Z,14.09
2023-04-10T19:35:11.884Z,13.53
2023-04-10T19:40:16.369Z,13.88
2023-04-10T19:45:20.415Z,14.07
2023-04-10T19:50:23.489Z,13.00
2023-04-10T19:55:28.525Z,12.83
2023-04-10T20:00:31.363Z,11.70
2023-04-10T20:05:34.201Z,9.84
2023-04-10T20:10:38.601Z,8.76
2023-04-10T20:15:41.497Z,9.36
2023-04-10T20:20:44.431Z,9.25
2023-04-10T20:25:49.120Z,9.40
2023-04-10T20:30:51.920Z,9.72
2023-04-10T20:35:54.837Z,9.73
2023-04-10T20:40:59.108Z,10.02
2023-04-10T20:46:04.038Z,10.07
2023-04-10T20:51:07.510Z,10.15
2023-04-10T20:56:11.920Z,10.12
2023-04-10T21:01:14.795Z,9.72
2023-04-10T21:06:18.197Z,9.71
2023-04-10T21:11:22.712Z,9.67
2023-04-10T21:16:25.522Z,9.56
2023-04-10T21:21:28.349Z,10.04
2023-04-10T21:26:32.573Z,9.76
2023-04-10T21:31:35.551Z,9.10
2023-04-10T21:36:39.430Z,9.15
2023-04-10T21:41:45.066Z,9.03
2023-04-10T21:46:47.926Z,8.96
2023-04-10T21:51:50.774Z,9.22
2023-04-10T21:56:54.945Z,9.25
2023-04-10T22:01:57.823Z,9.36
2023-04-10T22:07:00.653Z,9.44
2023-04-10T22:12:05.104Z,9.48
2023-04-10T22:17:08.111Z,8.97
2023-04-10T22:22:11.091Z,9.09
2023-04-10T22:27:15.333Z,8.89
2023-04-10T22:32:18.150Z,8.85
2023-04-10T22:37:20.914Z,8.91
2023-04-10T22:42:25.180Z,8.52
2023-04-10T22:47:28.120Z,8.70
2023-04-10T22:52:30.939Z,8.74
2023-04-10T22:57:35.325Z,8.67
2023-04-10T23:02:38.205Z,8.43
2023-04-10T23:07:41.165Z,8.45
2023-04-10T23:12:45.355Z,8.36
2023-04-10T23:17:48.222Z,8.42
2023-04-10T23:22:51.114Z,8.42
2023-04-10T23:27:55.534Z,8.48
2023-04-10T23:32:58.682Z,8.41
2023-04-10T23:38:01.760Z,8.63
2023-04-10T23:43:06.307Z,8.55
2023-04-10T23:48:11.678Z,8.51
2023-04-10T23:53:14.788Z,8.45
2023-04-10T23:58:19.038Z,8.47
